Pulau Tioman — 3EYO9 — position and weather

sailwx.info

Track history (hours):
 
Tides and Currents Weather Stations Pressure Air Temp Water Temp Dewpoint Dewpoint Depression Visibility Wind Speed Wind Dir Waves Ship Positions

Pulau Tioman

Last reported at 2016-Jan-15 08:24 UTC. Time now 2016-Feb-08 18:56 UTC.
Position N 34°37' E 134°60'.
Warning: this ship's position is 24 days out of date.

Length 120 m; draft 5.8 m.

Type: Cargo ship. MMSI: 356613000.

Date/timePositionNaut miles runAvg speedWind from/ knotsBaromVisibWave heightAir tempDewpointWater temp
2016-Jan-15 08:24N 34°37' E 134°60'910.7
2016-Jan-15 07:33N 34°36' E 135°10'7 3.6
2016-Jan-15 05:31N 34°42' E 135°15'0 0.0
2016-Jan-15 04:31N 34°42' E 135°15'0 0.0
2016-Jan-15 03:31N 34°42' E 135°15'0 0.0
2016-Jan-15 02:31N 34°42' E 135°15'0 0.0
2016-Jan-15 01:31N 34°42' E 135°15'0 0.0
2016-Jan-15 00:31N 34°42' E 135°15'0 0.0
2016-Jan-14 23:31N 34°42' E 135°15'0 0.0
2016-Jan-14 22:31N 34°42' E 135°15'0 0.0
2016-Jan-14 21:31N 34°42' E 135°15'0 0.0
2016-Jan-14 20:31N 34°42' E 135°15'0 0.0
2016-Jan-14 19:31N 34°42' E 135°15'0 0.0
2016-Jan-14 18:25N 34°42' E 135°15'0 0.0
2016-Jan-14 17:31N 34°42' E 135°15'0 0.0
2016-Jan-14 16:31N 34°42' E 135°15'0 0.0
2016-Jan-14 15:31N 34°42' E 135°15'0 0.0
2016-Jan-14 14:25N 34°42' E 135°15'0 0.0
2016-Jan-14 13:19N 34°42' E 135°15'0 0.1
2016-Jan-14 12:31N 34°42' E 135°15'0 0.0
2016-Jan-14 11:31N 34°42' E 135°15'0 0.0
2016-Jan-14 10:25N 34°42' E 135°15'0 0.0
2016-Jan-14 09:31N 34°42' E 135°15'0 0.0
2016-Jan-14 08:25N 34°42' E 135°15'0 0.1
2016-Jan-14 07:31N 34°42' E 135°15'0 0.0
2016-Jan-14 06:25N 34°42' E 135°15'0 0.0
2016-Jan-14 05:31N 34°42' E 135°15'0 0.0
2016-Jan-14 04:25N 34°42' E 135°15'0 0.0
2016-Jan-14 03:31N 34°42' E 135°15'0 0.0
2016-Jan-14 02:31N 34°42' E 135°15'0 0.0
2016-Jan-14 01:31N 34°42' E 135°15'0 0.5
2016-Jan-14 00:33N 34°42' E 135°15'7 7.1
2016-Jan-13 23:33N 34°34' E 135°15'1413.7
2016-Jan-13 22:32N 34°23' E 135°04'1313.5
2016-Jan-13 21:33N 34°11' E 134°59'7 2.2
2016-Jan-13 18:22N 34°04' E 134°58'245 6.8
2016-Jan-12 06:28N 35°11' E 139°45'1111.7
2016-Jan-12 05:33N 35°21' E 139°42'6 5.4
2016-Jan-12 04:27N 35°27' E 139°40'0 0.0
2016-Jan-12 03:33N 35°27' E 139°40'0 0.0
2016-Jan-12 02:33N 35°27' E 139°40'0 0.0
2016-Jan-12 01:33N 35°27' E 139°40'2 1.9
2016-Jan-12 00:33N 35°26' E 139°42'9 9.5
2016-Jan-11 23:33N 35°17' E 139°45'  
Track history (hours):
 
Tides and Currents Weather Stations Pressure Air Temp Water Temp Dewpoint Dewpoint Depression Visibility Wind Speed Wind Dir Waves Ship Positions

Pulau Tioman

Last reported at 2016-Jan-15 08:24 UTC. Time now 2016-Feb-08 18:56 UTC.
Position N 34°37' E 134°60'.
Warning: this ship's position is 24 days out of date.

Length 120 m; draft 5.8 m.

Type: Cargo ship. MMSI: 356613000.

Date/timePositionNaut miles runAvg speedWind from/ knotsBaromVisibWave heightAir tempDewpointWater temp
2016-Jan-15 08:24N 34°37' E 134°60'910.7
2016-Jan-15 07:33N 34°36' E 135°10'7 3.6
2016-Jan-15 05:31N 34°42' E 135°15'0 0.0
2016-Jan-15 04:31N 34°42' E 135°15'0 0.0
2016-Jan-15 03:31N 34°42' E 135°15'0 0.0
2016-Jan-15 02:31N 34°42' E 135°15'0 0.0
2016-Jan-15 01:31N 34°42' E 135°15'0 0.0
2016-Jan-15 00:31N 34°42' E 135°15'0 0.0
2016-Jan-14 23:31N 34°42' E 135°15'0 0.0
2016-Jan-14 22:31N 34°42' E 135°15'0 0.0
2016-Jan-14 21:31N 34°42' E 135°15'0 0.0
2016-Jan-14 20:31N 34°42' E 135°15'0 0.0
2016-Jan-14 19:31N 34°42' E 135°15'0 0.0
2016-Jan-14 18:25N 34°42' E 135°15'0 0.0
2016-Jan-14 17:31N 34°42' E 135°15'0 0.0
2016-Jan-14 16:31N 34°42' E 135°15'0 0.0
2016-Jan-14 15:31N 34°42' E 135°15'0 0.0
2016-Jan-14 14:25N 34°42' E 135°15'0 0.0
2016-Jan-14 13:19N 34°42' E 135°15'0 0.1
2016-Jan-14 12:31N 34°42' E 135°15'0 0.0
2016-Jan-14 11:31N 34°42' E 135°15'0 0.0
2016-Jan-14 10:25N 34°42' E 135°15'0 0.0
2016-Jan-14 09:31N 34°42' E 135°15'0 0.0
2016-Jan-14 08:25N 34°42' E 135°15'0 0.1
2016-Jan-14 07:31N 34°42' E 135°15'0 0.0
2016-Jan-14 06:25N 34°42' E 135°15'0 0.0
2016-Jan-14 05:31N 34°42' E 135°15'0 0.0
2016-Jan-14 04:25N 34°42' E 135°15'0 0.0
2016-Jan-14 03:31N 34°42' E 135°15'0 0.0
2016-Jan-14 02:31N 34°42' E 135°15'0 0.0
2016-Jan-14 01:31N 34°42' E 135°15'0 0.5
2016-Jan-14 00:33N 34°42' E 135°15'7 7.1
2016-Jan-13 23:33N 34°34' E 135°15'1413.7
2016-Jan-13 22:32N 34°23' E 135°04'1313.5
2016-Jan-13 21:33N 34°11' E 134°59'7 2.2
2016-Jan-13 18:22N 34°04' E 134°58'245 6.8
2016-Jan-12 06:28N 35°11' E 139°45'1111.7
2016-Jan-12 05:33N 35°21' E 139°42'6 5.4
2016-Jan-12 04:27N 35°27' E 139°40'0 0.0
2016-Jan-12 03:33N 35°27' E 139°40'0 0.0
2016-Jan-12 02:33N 35°27' E 139°40'0 0.0
2016-Jan-12 01:33N 35°27' E 139°40'2 1.9
2016-Jan-12 00:33N 35°26' E 139°42'9 9.5
2016-Jan-11 23:33N 35°17' E 139°45'  

Dump ship's entire track history